Time;durP1;ratioP1;P1;durP2;ratioP2;P2;SDS_P1;SDS_P2;PMS_P1;PMS_P2;Temp;Humidity;BMP_temperature;BMP_pressure;BME280_temperature;BME280_humidity;BME280_pressure;Samples;Min_cycle;Max_cycle;Signal;HPM_P1;HPM_P2
2022/07/23 00:01:02;;;;;;;27.53;17.83;;;;;;;23.37;69.49;99358.00;4957337;28;20165;-89
2022/07/23 00:03:28;;;;;;;29.73;19.43;;;;;;;20.89;71.47;98987.25;4957217;28;20287;-89
2022/07/23 00:05:53;;;;;;;36.00;25.00;;;;;;;20.86;70.89;98979.53;4990836;28;20254;-88
2022/07/23 00:08:19;;;;;;;44.07;29.30;;;;;;;19.68;70.42;98757.16;4975055;28;20196;-87
2022/07/23 00:10:44;;;;;;;52.83;37.97;;;;;;;21.05;72.95;99036.09;4975974;28;20201;-87
2022/07/23 00:13:10;;;;;;;48.87;37.27;;;;;;;20.59;73.85;98965.06;4977232;28;20191;-87
2022/07/23 00:15:35;;;;;;;48.80;35.03;;;;;;;20.53;74.75;98947.94;4992530;28;20218;-89
2022/07/23 00:18:01;;;;;;;54.37;39.30;;;;;;;21.61;77.42;99185.28;4974763;28;20176;-89
2022/07/23 00:20:26;;;;;;;47.90;35.37;;;;;;;20.87;81.29;99091.91;4976337;28;20195;-87
2022/07/23 00:22:54;;;;;;;52.30;36.50;;;;;;;22.43;82.18;99356.81;4989442;28;20169;-87
2022/07/23 00:25:21;;;;;;;44.83;33.20;;;;;;;21.89;80.49;99252.19;4984036;28;20187;-88
2022/07/23 00:27:47;;;;;;;40.73;31.40;;;;;;;19.95;79.04;98897.50;4956465;28;20196;-89
2022/07/23 00:30:13;;;;;;;43.73;30.23;;;;;;;22.67;79.01;99356.72;4971249;28;20177;-91
2022/07/23 00:33:06;;;;;;;42.47;30.73;;;;;;;22.61;78.50;99357.59;4956722;28;20173;-85
2022/07/23 00:35:35;;;;;;;37.90;28.37;;;;;;;22.22;78.52;99321.69;4927171;29;20193;-87
2022/07/23 00:38:02;;;;;;;40.93;31.00;;;;;;;22.32;79.27;99364.63;4954502;29;20275;-87
2022/07/23 00:40:29;;;;;;;39.00;28.00;;;;;;;20.07;78.39;98981.44;4954041;29;20275;-88
2022/07/23 00:42:55;;;;;;;42.57;27.57;;;;;;;22.28;79.09;99365.47;4954168;29;20201;-88
2022/07/23 00:45:20;;;;;;;34.47;23.37;;;;;;;22.30;78.36;99372.34;4938212;29;20208;-87
2022/07/23 00:47:46;;;;;;;33.13;21.63;;;;;;;21.70;77.80;99248.78;4931023;29;20579;-86
2022/07/23 00:50:12;;;;;;;33.40;21.30;;;;;;;21.70;78.43;99254.78;4919219;29;20182;-87
2022/07/23 00:52:39;;;;;;;28.03;20.10;;;;;;;21.28;78.96;99195.69;4934767;29;20185;-87
2022/07/23 00:55:06;;;;;;;27.43;18.60;;;;;;;22.13;79.94;99376.72;4935252;29;20177;-87
2022/07/23 00:57:32;;;;;;;26.03;19.20;;;;;;;20.99;79.87;99181.97;4937333;29;20225;-85
2022/07/23 00:59:57;;;;;;;25.53;18.10;;;;;;;20.53;80.77;99111.69;4944716;29;20207;-86
2022/07/23 01:02:26;;;;;;;23.23;16.97;;;;;;;21.15;81.48;99227.47;4939723;29;20225;-87
2022/07/23 01:04:52;;;;;;;24.43;16.87;;;;;;;20.78;80.67;99151.13;4918835;29;20174;-90
2022/07/23 01:07:18;;;;;;;21.37;16.63;;;;;;;21.98;80.73;99370.72;4934740;29;20603;-88
2022/07/23 01:09:45;;;;;;;29.87;19.43;;;;;;;19.88;78.93;99042.25;4934683;29;20604;-87
2022/07/23 01:12:11;;;;;;;27.07;19.87;;;;;;;20.67;79.04;99147.69;4933638;29;20192;-88
2022/07/23 01:14:36;;;;;;;26.20;19.57;;;;;;;19.43;78.67;98966.00;4969012;28;20179;-86
2022/07/23 01:17:02;;;;;;;28.17;18.73;;;;;;;21.08;79.53;99241.19;4974908;28;20160;-89
2022/07/23 01:19:28;;;;;;;25.20;17.93;;;;;;;19.56;79.98;98956.63;4974510;28;20186;-88
2022/07/23 01:21:56;;;;;;;25.90;17.30;;;;;;;20.60;81.51;99152.84;4990418;28;20207;-86
2022/07/23 01:24:22;;;;;;;25.07;18.50;;;;;;;19.27;80.10;98912.91;4975421;28;20168;-86
2022/07/23 01:26:48;;;;;;;23.70;16.90;;;;;;;21.50;82.85;99356.19;4957534;28;20173;-88
2022/07/23 01:29:14;;;;;;;23.47;16.40;;;;;;;21.03;82.46;99259.19;4955076;29;20256;-87
2022/07/23 01:31:40;;;;;;;23.73;15.50;;;;;;;21.50;82.46;99354.47;4955581;29;20204;-87
2022/07/23 01:34:07;;;;;;;25.63;15.73;;;;;;;21.39;82.08;99371.66;4954386;28;20172;-86
2022/07/23 01:36:33;;;;;;;21.90;15.97;;;;;;;21.40;80.91;99359.66;4955969;29;20200;-86
2022/07/23 01:38:58;;;;;;;22.37;16.67;;;;;;;19.46;77.51;99016.50;4973997;28;20183;-88
2022/07/23 01:41:24;;;;;;;26.77;17.90;;;;;;;19.98;75.46;99124.50;4974645;28;20160;-88
2022/07/23 01:43:49;;;;;;;27.60;20.17;;;;;;;20.39;75.52;99255.69;4989760;28;20552;-87
2022/07/23 01:46:15;;;;;;;27.33;20.10;;;;;;;18.98;74.82;98953.06;4975034;28;20251;-86
2022/07/23 01:48:41;;;;;;;27.37;19.83;;;;;;;19.26;74.47;98996.75;4973442;28;20200;-89
2022/07/23 01:51:06;;;;;;;29.10;20.00;;;;;;;21.58;74.18;99360.50;4974794;28;20250;-88
2022/07/23 01:53:32;;;;;;;31.63;21.53;;;;;;;19.41;74.83;99032.78;4975158;28;20175;-89
2022/07/23 01:55:58;;;;;;;32.23;21.60;;;;;;;18.57;75.49;98896.50;4973414;28;20176;-88
2022/07/23 01:58:25;;;;;;;32.13;21.73;;;;;;;20.44;75.59;99217.13;4973844;28;20168;-88
2022/07/23 02:00:50;;;;;;;31.73;21.47;;;;;;;21.22;75.84;99362.19;4975872;28;20248;-87
2022/07/23 02:03:15;;;;;;;33.73;22.73;;;;;;;19.15;76.91;99039.47;4974612;28;20235;-90
2022/07/23 02:05:41;;;;;;;33.30;21.73;;;;;;;19.61;76.46;99091.03;4973360;28;20176;-89
2022/07/23 02:08:06;;;;;;;35.93;23.60;;;;;;;19.71;76.76;99131.28;5122247;23;20242;-89
2022/07/23 02:10:32;;;;;;;34.73;24.73;;;;;;;20.14;77.37;99224.75;5013201;28;20262;-86
2022/07/23 02:12:57;;;;;;;34.10;24.43;;;;;;;19.28;77.46;99100.28;5014316;28;20198;-87
2022/07/23 02:15:23;;;;;;;38.00;24.50;;;;;;;20.51;78.23;99340.63;5105541;23;20280;-90
2022/07/23 02:17:48;;;;;;;37.13;25.87;;;;;;;19.04;79.64;99113.00;5033020;28;20189;-89
2022/07/23 02:20:14;;;;;;;36.90;26.40;;;;;;;20.55;79.05;99365.47;5033641;28;20669;-86
2022/07/23 02:22:40;;;;;;;37.40;25.97;;;;;;;19.10;79.63;99131.00;5032559;28;20174;-86
2022/07/23 02:25:07;;;;;;;38.37;26.67;;;;;;;19.34;80.42;99186.72;5034057;28;20647;-87
2022/07/23 02:27:33;;;;;;;40.30;27.17;;;;;;;18.43;79.58;99037.38;5032605;28;20753;-86
2022/07/23 02:29:59;;;;;;;37.67;26.53;;;;;;;18.28;79.67;99007.38;5032426;28;20220;-86
2022/07/23 02:32:24;;;;;;;35.87;25.40;;;;;;;20.39;80.52;99362.84;5031211;28;20185;-87
2022/07/23 02:34:50;;;;;;;36.77;24.70;;;;;;;19.96;78.78;99253.84;5031542;28;20173;-88
2022/07/23 02:37:16;;;;;;;34.57;23.90;;;;;;;18.26;77.63;98955.28;5032453;28;20228;-86
2022/07/23 02:39:41;;;;;;;36.77;23.40;;;;;;;20.14;77.27;99246.19;5029982;28;20186;-89
2022/07/23 02:42:07;;;;;;;30.87;22.53;;;;;;;20.82;77.17;99356.97;5031095;28;20200;-87
2022/07/23 02:44:32;;;;;;;29.90;21.87;;;;;;;21.01;76.27;99363.03;5032388;28;20170;-88
2022/07/23 02:46:58;;;;;;;27.47;21.30;;;;;;;20.43;75.58;99270.31;5014499;28;20231;-88
2022/07/23 02:49:23;;;;;;;30.10;21.20;;;;;;;19.48;74.42;99084.97;5032821;28;20208;-89
2022/07/23 02:51:49;;;;;;;30.83;20.53;;;;;;;20.55;74.89;99272.88;5032721;28;20628;-86
2022/07/23 02:54:15;;;;;;;27.20;20.13;;;;;;;18.49;74.11;98891.31;5025620;28;20177;-87
2022/07/23 02:56:40;;;;;;;29.83;19.67;;;;;;;20.15;72.70;99150.22;4994663;28;20639;-89
2022/07/23 02:59:06;;;;;;;27.10;19.37;;;;;;;20.60;71.94;99226.59;5012055;28;20245;-86
2022/07/23 03:01:32;;;;;;;24.93;18.83;;;;;;;21.18;72.95;99369.06;5027374;28;20170;-86
2022/07/23 03:03:57;;;;;;;24.67;18.57;;;;;;;20.24;73.98;99229.97;5012446;28;20197;-86
2022/07/23 03:06:23;;;;;;;25.67;18.43;;;;;;;18.75;74.88;99005.13;5011911;28;20171;-86
2022/07/23 03:08:48;;;;;;;26.33;19.03;;;;;;;19.59;75.92;99157.78;5010559;28;20297;-87
2022/07/23 03:11:14;;;;;;;29.50;19.43;;;;;;;19.14;79.37;99137.88;5010742;28;20635;-88
2022/07/23 03:13:40;;;;;;;32.67;20.13;;;;;;;19.81;79.60;99251.19;5028675;28;20557;-88
2022/07/23 03:16:06;;;;;;;28.70;19.43;;;;;;;20.34;80.10;99337.13;5031685;28;20217;-88
2022/07/23 03:18:32;;;;;;;26.43;19.80;;;;;;;20.02;80.19;99293.25;5031887;28;20597;-86
2022/07/23 03:20:57;;;;;;;30.03;20.27;;;;;;;17.32;79.93;98842.75;5031436;28;20167;-88
2022/07/23 03:23:22;;;;;;;29.50;19.73;;;;;;;19.78;79.58;99257.16;5031600;28;20166;-84
2022/07/23 03:25:48;;;;;;;27.30;20.87;;;;;;;19.00;78.91;99118.97;5014169;28;20552;-85
2022/07/23 03:28:18;;;;;;;27.83;21.13;;;;;;;19.69;78.17;99240.88;5030176;28;20194;-87
2022/07/23 03:30:46;;;;;;;30.30;21.17;;;;;;;20.33;80.09;99384.25;5014193;28;20531;-86
2022/07/23 03:33:13;;;;;;;32.70;21.87;;;;;;;18.76;79.38;99127.38;5024021;28;20189;-88
2022/07/23 03:35:38;;;;;;;34.27;21.10;;;;;;;19.12;78.51;99174.63;5012012;28;20175;-87
2022/07/23 03:38:03;;;;;;;29.33;20.97;;;;;;;19.24;78.79;99221.75;5011877;28;20178;-86
2022/07/23 03:40:32;;;;;;;30.07;20.67;;;;;;;18.12;78.30;99015.81;4994572;28;20194;-86
2022/07/23 03:42:57;;;;;;;28.43;20.57;;;;;;;17.50;78.04;98871.91;5011607;28;20550;-88
2022/07/23 03:45:23;;;;;;;27.97;19.67;;;;;;;19.10;76.75;99104.47;5012486;28;20674;-87
2022/07/23 03:47:48;;;;;;;29.20;20.30;;;;;;;18.06;76.35;98936.34;5014069;28;20206;-87
2022/07/23 03:50:14;;;;;;;30.67;19.10;;;;;;;19.39;75.71;99159.41;5015475;28;20167;-86
2022/07/23 03:52:39;;;;;;;27.47;20.13;;;;;;;18.82;76.50;99086.38;5013904;28;20615;-89
2022/07/23 03:55:05;;;;;;;29.33;19.27;;;;;;;19.63;76.48;99228.00;5015827;28;20181;-87
2022/07/23 03:57:31;;;;;;;29.13;21.20;;;;;;;20.07;76.70;99300.13;5030591;28;20181;-87
2022/07/23 03:59:56;;;;;;;27.03;20.77;;;;;;;17.73;76.63;98907.94;4997398;28;20166;-86
2022/07/23 04:02:22;;;;;;;30.80;22.07;;;;;;;17.98;76.07;98937.16;4997371;28;20194;-84
2022/07/23 04:04:47;;;;;;;31.13;22.57;;;;;;;19.96;76.00;99303.53;5015318;28;20178;-87
2022/07/23 04:07:14;;;;;;;31.10;22.47;;;;;;;20.62;76.43;99380.94;5015075;28;20195;-87
2022/07/23 04:09:42;;;;;;;35.63;23.37;;;;;;;18.50;75.72;99033.19;4997857;28;20175;-87
2022/07/23 04:12:07;;;;;;;37.57;25.50;;;;;;;19.54;75.49;99205.69;5015075;28;20642;-87
2022/07/23 04:14:33;;;;;;;37.60;26.00;;;;;;;20.07;75.56;99275.28;5014670;28;20171;-88
2022/07/23 04:16:59;;;;;;;38.73;25.50;;;;;;;19.65;75.56;99182.63;5014582;28;20237;-87
2022/07/23 04:19:25;;;;;;;41.37;27.20;;;;;;;20.27;76.66;99348.22;5015113;28;20529;-87
2022/07/23 04:21:51;;;;;;;41.10;27.50;;;;;;;20.57;77.05;99392.06;5030288;28;20174;-89
2022/07/23 04:24:17;;;;;;;41.90;28.83;;;;;;;17.25;77.18;98821.38;4997243;28;20171;-87
2022/07/23 04:26:42;;;;;;;37.37;27.10;;;;;;;19.47;75.50;99154.31;5014273;28;20171;-87
2022/07/23 04:29:07;;;;;;;37.93;27.63;;;;;;;19.41;74.48;99143.16;5014775;28;20634;-88
2022/07/23 04:31:33;;;;;;;41.80;27.77;;;;;;;21.15;74.86;99399.97;5013281;28;20178;-88
2022/07/23 04:33:58;;;;;;;38.30;27.63;;;;;;;18.90;74.99;99024.84;5013707;28;20186;-89
2022/07/23 04:36:23;;;;;;;36.90;27.57;;;;;;;19.86;74.81;99188.69;5015161;28;20261;-88
2022/07/23 04:38:49;;;;;;;36.27;27.13;;;;;;;20.07;74.45;99187.91;5014259;28;20167;-87
2022/07/23 04:41:14;;;;;;;39.13;27.00;;;;;;;20.02;73.56;99141.63;5013435;28;20170;-88
2022/07/23 04:43:40;;;;;;;40.13;25.40;;;;;;;19.54;72.52;99061.03;5017014;28;20198;-88
2022/07/23 04:46:05;;;;;;;35.10;26.03;;;;;;;20.06;71.65;99088.53;5029609;28;20173;-88
2022/07/23 04:48:31;;;;;;;39.13;26.20;;;;;;;20.78;70.52;99171.69;5015167;28;20214;-87
2022/07/23 04:50:56;;;;;;;34.87;24.70;;;;;;;20.02;69.49;99017.44;4996775;28;20627;-86
2022/07/23 04:53:22;;;;;;;39.87;26.03;;;;;;;22.39;69.79;99405.00;5014415;28;20178;-86
2022/07/23 04:55:47;;;;;;;40.83;27.40;;;;;;;20.73;68.66;99079.09;5004525;28;20170;-87
2022/07/23 04:58:13;;;;;;;37.00;26.00;;;;;;;21.28;69.16;99187.97;5033105;28;20177;-87
2022/07/23 05:00:38;;;;;;;38.00;26.57;;;;;;;20.90;70.86;99158.84;5034385;28;20211;-87
2022/07/23 05:03:04;;;;;;;38.10;27.10;;;;;;;21.24;70.79;99201.69;5033312;28;20178;-87
2022/07/23 05:05:29;;;;;;;40.70;28.60;;;;;;;22.36;71.82;99405.00;5034454;28;20182;-91
2022/07/23 05:07:55;;;;;;;40.70;28.40;;;;;;;20.43;70.38;99038.84;5032495;28;20221;-88
2022/07/23 05:10:20;;;;;;;38.23;29.37;;;;;;;20.79;69.03;99057.63;5033567;28;20166;-86
2022/07/23 05:12:45;;;;;;;40.47;30.30;;;;;;;20.43;68.93;99002.84;5033852;28;20592;-86
2022/07/23 05:15:11;;;;;;;47.47;33.37;;;;;;;22.88;68.99;99403.09;5034167;28;20208;-88
2022/07/23 05:17:36;;;;;;;52.83;36.27;;;;;;;21.04;67.34;99044.66;5014144;28;20170;-87
2022/07/23 05:20:02;;;;;;;53.37;37.60;;;;;;;20.71;65.46;98935.88;5013594;28;20163;-87
2022/07/23 05:22:28;;;;;;;58.20;39.83;;;;;;;22.79;64.19;99305.91;4995916;28;20182;-86
2022/07/23 05:24:53;;;;;;;53.43;39.10;;;;;;;20.30;64.16;98862.31;5014644;28;20216;-87
2022/07/23 05:27:19;;;;;;;50.13;36.50;;;;;;;21.60;62.87;99052.16;5013060;28;20663;-88
2022/07/23 05:29:44;;;;;;;49.87;34.10;;;;;;;22.61;61.61;99151.13;5013514;28;20635;-87
2022/07/23 05:32:10;;;;;;;46.53;32.53;;;;;;;23.20;60.87;99234.97;5013197;28;20635;-88
2022/07/23 05:34:35;;;;;;;32.90;24.80;;;;;;;23.94;60.14;99283.31;5018137;28;20189;-88
2022/07/23 05:37:00;;;;;;;27.53;21.37;;;;;;;22.84;60.84;99132.91;5027514;28;20194;-88
2022/07/23 05:39:26;;;;;;;30.13;21.10;;;;;;;23.18;60.98;99195.41;5033560;28;20178;-87
2022/07/23 05:41:51;;;;;;;28.73;19.77;;;;;;;22.67;59.63;99130.47;5033396;28;20180;-88
2022/07/23 05:44:17;;;;;;;27.63;19.20;;;;;;;24.40;59.41;99381.94;5032842;28;20166;-88
2022/07/23 05:46:42;;;;;;;26.13;18.53;;;;;;;23.10;57.73;99117.13;5031720;28;20170;-88
2022/07/23 05:49:08;;;;;;;25.13;17.80;;;;;;;23.16;56.19;99094.66;5031372;28;20209;-88
2022/07/23 05:51:33;;;;;;;25.00;17.83;;;;;;;23.71;56.16;99182.75;5014953;28;20642;-87
2022/07/23 05:53:59;;;;;;;26.77;17.80;;;;;;;24.17;55.43;99195.09;5032915;28;20166;-87
2022/07/23 05:56:24;;;;;;;26.80;17.47;;;;;;;23.50;54.51;99084.81;5031747;28;20562;-88
2022/07/23 05:58:49;;;;;;;28.30;17.77;;;;;;;24.22;53.08;99101.03;5033150;28;20629;-87
2022/07/23 06:01:15;;;;;;;24.60;17.03;;;;;;;24.17;52.83;99109.75;5033515;28;20176;-89
2022/07/23 06:03:40;;;;;;;42.23;18.73;;;;;;;24.40;52.30;99071.38;5032324;28;20174;-87
2022/07/23 06:06:06;;;;;;;27.63;17.90;;;;;;;25.26;51.64;99175.19;5032749;28;20250;-84
2022/07/23 06:08:32;;;;;;;28.17;16.73;;;;;;;25.95;51.36;99297.44;5032189;28;20208;-86
2022/07/23 06:10:57;;;;;;;28.00;17.13;;;;;;;25.06;51.57;99142.72;5013155;28;20178;-87
2022/07/23 06:13:23;;;;;;;24.93;17.67;;;;;;;24.95;50.86;99097.16;5022876;28;20205;-87
2022/07/23 06:15:48;;;;;;;23.67;15.20;;;;;;;26.03;50.09;99249.72;5032027;28;20765;-88
2022/07/23 06:18:14;;;;;;;20.43;13.23;;;;;;;25.70;48.66;99151.84;5033304;28;20162;-88
2022/07/23 06:20:39;;;;;;;14.03;11.50;;;;;;;26.54;48.19;99350.75;5032716;28;20599;-87
2022/07/23 06:23:05;;;;;;;14.60;10.97;;;;;;;25.08;47.33;99016.59;5015309;28;20551;-88
2022/07/23 06:25:30;;;;;;;16.90;11.13;;;;;;;26.12;47.14;99238.28;5032327;28;20247;-88
2022/07/23 06:27:56;;;;;;;16.27;10.63;;;;;;;25.06;46.86;99043.41;5032317;28;20281;-88
2022/07/23 06:30:21;;;;;;;19.20;10.80;;;;;;;25.59;46.58;99076.03;5032601;28;20254;-88
2022/07/23 06:32:47;;;;;;;16.60;10.38;;;;;;;25.80;45.42;99096.28;5033197;28;20165;-88
2022/07/23 06:35:13;;;;;;;16.73;10.40;;;;;;;25.90;44.29;99027.75;5014936;28;20630;-86
2022/07/23 06:37:39;;;;;;;14.50;9.55;;;;;;;26.16;45.33;99094.59;5035311;28;20172;-87
2022/07/23 06:40:05;;;;;;;13.57;10.27;;;;;;;27.65;44.50;99284.84;5033971;28;20585;-87
2022/07/23 06:42:30;;;;;;;16.70;10.13;;;;;;;26.53;44.40;99037.44;5015306;28;20556;-87
2022/07/23 06:44:56;;;;;;;11.85;9.40;;;;;;;27.95;43.32;99276.19;5031924;28;20178;-87
2022/07/23 06:47:21;;;;;;;16.38;9.50;;;;;;;26.29;43.80;99044.94;5032896;28;20629;-87
2022/07/23 06:49:47;;;;;;;18.58;10.50;;;;;;;28.73;42.56;99367.72;5032376;28;20162;-87
2022/07/23 06:52:12;;;;;;;14.63;9.30;;;;;;;27.42;42.67;99126.81;5032741;28;20199;-87
2022/07/23 06:54:37;;;;;;;12.32;9.50;;;;;;;28.59;41.34;99366.34;5030843;28;20653;-87
2022/07/23 06:57:03;;;;;;;12.77;9.52;;;;;;;26.01;42.39;98898.63;5031836;28;20220;-89
2022/07/23 06:59:28;;;;;;;12.63;9.25;;;;;;;27.35;41.72;99052.47;5015151;28;20594;-88
2022/07/23 07:01:54;;;;;;;15.15;9.32;;;;;;;28.86;41.26;99262.19;5031808;28;20167;-87
2022/07/23 07:04:19;;;;;;;15.15;9.35;;;;;;;29.48;41.07;99344.44;5076137;23;20248;-87
2022/07/23 07:06:45;;;;;;;15.60;9.55;;;;;;;28.22;40.08;99053.22;5018583;28;20685;-88
2022/07/23 07:09:10;;;;;;;13.15;9.15;;;;;;;29.84;39.96;99287.50;5030268;28;20212;-88
2022/07/23 07:11:36;;;;;;;13.85;8.95;;;;;;;29.74;38.88;99205.19;5031713;28;20167;-88
2022/07/23 07:14:01;;;;;;;11.75;8.88;;;;;;;30.33;38.81;99305.69;5013294;28;20179;-87
2022/07/23 07:16:27;;;;;;;10.13;8.90;;;;;;;29.49;38.50;99119.16;5031374;28;20175;-87
2022/07/23 07:18:56;;;;;;;21.20;16.23;;;;;;;31.20;37.83;99357.22;5014749;28;20180;-86
2022/07/23 07:21:22;;;;;;;20.58;16.10;;;;;;;29.58;37.70;99037.06;5021541;28;20260;-89
2022/07/23 07:23:47;;;;;;;12.70;10.10;;;;;;;29.68;37.16;99057.53;5017544;28;20288;-87
2022/07/23 07:26:12;;;;;;;16.45;10.70;;;;;;;30.32;37.21;99104.59;5035231;28;20176;-86
2022/07/23 07:28:38;;;;;;;14.05;12.07;;;;;;;31.14;36.76;99264.16;5035229;28;20209;-88
2022/07/23 07:31:03;;;;;;;31.50;24.55;;;;;;;31.97;36.53;99357.44;5035081;28;20535;-87
2022/07/23 07:33:29;;;;;;;16.70;12.25;;;;;;;32.26;36.09;99355.31;5034943;28;20638;-88
2022/07/23 07:35:54;;;;;;;14.23;10.65;;;;;;;31.18;36.11;99187.22;5034867;28;20692;-88
2022/07/23 07:38:20;;;;;;;14.07;9.57;;;;;;;29.60;35.99;98900.41;5017471;28;20172;-89
2022/07/23 07:40:45;;;;;;;11.90;9.32;;;;;;;30.51;35.96;99021.09;5035234;28;20165;-88
2022/07/23 07:43:10;;;;;;;17.13;9.35;;;;;;;32.31;35.70;99298.28;5017848;28;20264;-89
2022/07/23 07:45:36;;;;;;;16.98;8.90;;;;;;;32.21;35.95;99302.25;5017434;28;20196;-87
2022/07/23 07:48:01;;;;;;;13.32;8.82;;;;;;;30.99;35.17;99091.34;5035037;28;20276;-88
2022/07/23 07:50:27;;;;;;;12.30;8.55;;;;;;;31.56;35.07;99162.03;5035004;28;20186;-89
2022/07/23 07:52:53;;;;;;;15.27;8.23;;;;;;;32.88;34.55;99332.28;5035021;28;20242;-88
2022/07/23 07:55:18;;;;;;;10.93;7.90;;;;;;;31.84;33.36;99131.03;5034466;28;20205;-88
2022/07/23 07:57:44;;;;;;;11.32;7.97;;;;;;;32.29;33.83;99226.75;5035059;28;20169;-88
2022/07/23 08:00:10;;;;;;;11.13;8.30;;;;;;;31.64;32.67;99083.16;5035160;28;20170;-87
2022/07/23 08:02:48;;;;;;;11.68;8.35;;;;;;;33.29;32.87;99326.81;5018054;28;20251;-88
2022/07/23 08:05:14;;;;;;;13.80;8.20;;;;;;;33.13;32.78;99269.84;5036227;28;20211;-86
2022/07/23 08:07:40;;;;;;;16.20;8.75;;;;;;;33.82;32.63;99325.81;5018794;28;20239;-87
2022/07/23 08:10:08;;;;;;;15.93;9.13;;;;;;;31.90;31.61;98976.22;5016709;28;20182;-87
2022/07/23 08:12:44;;;;;;;11.30;7.25;;;;;;;31.61;32.58;99050.09;5016670;28;20185;-87
2022/07/23 08:15:11;;;;;;;14.50;8.23;;;;;;;33.81;31.75;99318.03;5034340;28;20219;-87
2022/07/23 08:17:37;;;;;;;13.18;8.27;;;;;;;33.11;32.55;99143.13;5017376;28;20182;-87
2022/07/23 08:20:04;;;;;;;13.30;9.32;;;;;;;32.28;31.28;98947.28;5016103;28;20162;-88
2022/07/23 08:22:46;;;;;;;13.30;8.45;;;;;;;34.08;31.10;99318.38;5034600;28;20182;-86
2022/07/23 08:25:12;;;;;;;12.00;7.43;;;;;;;31.71;31.97;98982.44;5034629;28;20178;-87
2022/07/23 08:27:38;;;;;;;9.20;8.02;;;;;;;31.45;32.29;98924.31;5038704;28;20193;-86
2022/07/23 08:30:04;;;;;;;15.60;8.13;;;;;;;33.75;32.13;99236.91;5035259;28;20641;-88
2022/07/23 08:32:29;;;;;;;12.48;7.80;;;;;;;33.31;31.78;99099.22;5015983;28;20181;-88
2022/07/23 08:34:55;;;;;;;10.50;7.63;;;;;;;33.47;30.97;99058.06;5036189;28;20162;-89
2022/07/23 08:37:20;;;;;;;11.32;7.32;;;;;;;34.92;30.25;99303.13;5017185;28;20261;-86
2022/07/23 08:39:45;;;;;;;15.23;7.93;;;;;;;34.24;30.21;99183.38;5034686;28;20193;-87
2022/07/23 08:42:13;;;;;;;14.70;7.10;;;;;;;34.70;28.88;99201.81;5017323;28;20667;-87
2022/07/23 08:44:44;;;;;;;11.18;7.30;;;;;;;33.00;28.72;98893.56;5035394;28;20167;-87
2022/07/23 08:47:10;;;;;;;9.18;6.90;;;;;;;33.19;28.23;98896.03;5016889;28;20170;-87
2022/07/23 08:49:37;;;;;;;10.63;6.90;;;;;;;34.48;28.64;99096.13;5034830;28;20174;-87
2022/07/23 08:52:03;;;;;;;11.52;7.13;;;;;;;32.32;29.10;98745.25;5017160;28;20188;-87
2022/07/23 08:54:28;;;;;;;12.52;7.47;;;;;;;35.43;29.81;99301.06;5034684;28;20257;-87
2022/07/23 08:56:54;;;;;;;10.30;6.90;;;;;;;34.87;28.19;99109.59;5034947;28;20225;-87
2022/07/23 08:59:19;;;;;;;11.30;6.80;;;;;;;34.86;27.48;99024.56;5034192;28;20166;-88
2022/07/23 09:01:44;;;;;;;9.70;6.78;;;;;;;36.71;27.49;99246.50;5033871;28;20650;-88
2022/07/23 09:04:10;;;;;;;10.05;6.78;;;;;;;36.36;27.84;99181.03;5032255;28;20709;-89
2022/07/23 09:06:39;;;;;;;11.77;7.18;;;;;;;36.76;27.22;99223.28;5032632;28;20228;-88
2022/07/23 09:09:20;;;;;;;9.70;6.85;;;;;;;35.91;27.47;99081.16;5033866;28;20580;-88
2022/07/23 09:12:04;;;;;;;10.05;6.80;;;;;;;36.34;26.98;99198.78;5033978;28;20162;-88
2022/07/23 09:14:46;;;;;;;11.63;7.28;;;;;;;35.85;27.30;99081.56;5016076;28;20177;-89
2022/07/23 09:17:17;;;;;;;9.65;6.80;;;;;;;35.00;27.59;99009.72;5033830;28;20169;-87
2022/07/23 09:19:44;;;;;;;8.63;7.07;;;;;;;35.53;27.40;99152.06;5015913;28;20174;-88
2022/07/23 09:22:26;;;;;;;11.10;7.25;;;;;;;35.89;27.08;99098.88;5034631;28;20255;-87
2022/07/23 09:25:11;;;;;;;11.18;7.40;;;;;;;36.18;26.97;99118.13;5018304;28;20166;-89
2022/07/23 09:27:53;;;;;;;9.85;6.72;;;;;;;37.47;26.65;99282.75;5015857;28;20223;-88
2022/07/23 09:30:24;;;;;;;10.95;7.72;;;;;;;37.29;26.86;99291.03;5032927;28;20647;-89
2022/07/23 09:33:12;;;;;;;10.35;7.22;;;;;;;37.33;27.01;99280.19;5017164;28;20178;-88
2022/07/23 09:35:55;;;;;;;10.10;7.00;;;;;;;36.10;26.49;99105.41;5034717;28;20174;-87
2022/07/23 09:38:23;;;;;;;10.05;7.22;;;;;;;36.19;26.31;99122.41;5033811;28;20627;-88
2022/07/23 09:41:08;;;;;;;9.30;7.05;;;;;;;37.33;25.99;99264.34;5034246;28;20166;-87
2022/07/23 09:43:33;;;;;;;9.07;6.93;;;;;;;36.38;25.93;99105.28;5033345;28;20170;-86
2022/07/23 09:46:19;;;;;;;11.32;7.07;;;;;;;37.32;25.90;99238.84;5034679;28;20575;-88
2022/07/23 09:48:45;;;;;;;10.07;6.90;;;;;;;36.55;25.63;99099.78;5034786;28;20202;-86
2022/07/23 09:51:11;;;;;;;13.27;6.88;;;;;;;36.91;24.48;99119.34;5016584;28;20172;-88
2022/07/23 09:53:36;;;;;;;8.50;6.60;;;;;;;36.71;24.49;99140.94;5016195;28;20177;-86
2022/07/23 09:56:02;;;;;;;10.27;6.22;;;;;;;36.48;23.24;99093.16;5018361;28;20198;-86
2022/07/23 09:58:30;;;;;;;8.82;6.10;;;;;;;35.85;23.79;98976.16;5016517;28;20257;-90
2022/07/23 10:00:58;;;;;;;10.13;6.85;;;;;;;35.82;23.78;98947.38;5015044;28;20174;-87
2022/07/23 10:03:23;;;;;;;12.48;7.15;;;;;;;37.39;24.19;99189.91;5032497;28;20725;-88
2022/07/23 10:05:50;;;;;;;11.30;7.15;;;;;;;38.09;24.74;99206.16;5015481;28;20166;-84
2022/07/23 10:08:19;;;;;;;14.95;7.38;;;;;;;35.69;24.18;98770.81;5032678;28;20212;-86
2022/07/23 10:10:46;;;;;;;9.80;6.55;;;;;;;37.29;22.27;99085.00;5014679;28;20170;-87
2022/07/23 10:15:56;;;;;;;9.13;6.30;;;;;;;35.22;23.21;98989.00;5033470;28;20653;-87
2022/07/23 10:18:22;;;;;;;12.82;6.60;;;;;;;36.55;23.56;99112.13;5016061;28;20174;-87
2022/07/23 10:20:49;;;;;;;9.43;6.35;;;;;;;36.76;23.07;99075.50;5015783;28;20643;-88
2022/07/23 10:23:35;;;;;;;12.18;6.50;;;;;;;37.18;23.03;99096.34;5040502;23;20304;-90
2022/07/23 10:26:21;;;;;;;9.43;6.65;;;;;;;38.43;22.81;99245.13;5053862;28;20546;-87
2022/07/23 10:29:14;;;;;;;10.52;6.25;;;;;;;36.03;23.54;98872.16;5051911;28;20580;-89
2022/07/23 10:31:45;;;;;;;11.32;6.60;;;;;;;37.88;23.50;99245.56;5052571;28;20181;-89
2022/07/23 10:34:25;;;;;;;12.40;7.10;;;;;;;37.68;23.66;99240.78;5052710;28;20177;-85
2022/07/23 10:36:55;;;;;;;10.85;6.80;;;;;;;37.64;23.67;99234.88;5054822;28;20215;-89
2022/07/23 10:39:28;;;;;;;9.98;7.15;;;;;;;38.04;22.49;99232.94;5051212;28;20170;-84
2022/07/23 10:42:08;;;;;;;11.75;6.60;;;;;;;38.43;22.57;99208.09;5053176;28;20184;-86
2022/07/23 10:44:42;;;;;;;8.98;6.90;;;;;;;37.00;22.63;98955.06;5053257;28;20176;-92
2022/07/23 10:49:52;;;;;;;10.98;6.57;;;;;;;36.57;22.80;98947.47;5055384;28;20180;-89
2022/07/23 10:52:25;;;;;;;13.05;6.72;;;;;;;37.75;22.29;99146.88;5069132;28;20173;-88
2022/07/23 10:54:54;;;;;;;13.20;6.80;;;;;;;38.12;22.08;99179.47;5050126;28;20169;-87
2022/07/23 10:57:23;;;;;;;9.50;6.53;;;;;;;37.50;21.68;99038.59;5053094;28;20173;-85
2022/07/23 11:02:33;;;;;;;11.85;5.97;;;;;;;36.53;22.10;99011.97;5052235;28;20161;-84
2022/07/23 11:05:11;;;;;;;10.95;6.70;;;;;;;37.63;22.34;99142.47;5067085;28;20256;-87
2022/07/23 11:08:10;;;;;;;12.00;6.50;;;;;;;37.13;21.98;99080.81;5050850;28;20215;-89
2022/07/23 11:10:38;;;;;;;11.38;6.43;;;;;;;37.64;21.91;99173.22;5051070;28;20227;-89
2022/07/23 11:13:22;;;;;;;9.98;6.20;;;;;;;37.38;21.87;99192.69;5053458;28;20634;-88
2022/07/23 11:16:05;;;;;;;11.07;6.75;;;;;;;37.93;22.16;99187.91;5053607;28;20252;-86
2022/07/23 11:18:40;;;;;;;11.30;6.70;;;;;;;38.03;21.91;99182.78;5052786;28;20693;-87
2022/07/23 11:21:23;;;;;;;12.40;6.85;;;;;;;38.50;21.68;99182.00;5052126;28;20200;-86
2022/07/23 11:23:57;;;;;;;12.60;6.35;;;;;;;38.74;21.68;99188.94;5063424;28;20216;-88
2022/07/23 11:26:41;;;;;;;9.07;6.22;;;;;;;38.18;21.94;99140.22;5055946;28;20181;-88
2022/07/23 11:29:25;;;;;;;14.18;6.93;;;;;;;38.76;21.62;99176.47;5055758;28;20193;-87
2022/07/23 11:31:54;;;;;;;10.40;6.32;;;;;;;38.32;21.56;99038.69;5073487;28;20169;-87